createdAt,value
2023-01-27T00:00:24.001Z,99.99
2023-01-27T00:01:24.489Z,99.99
2023-01-27T00:02:24.777Z,99.99
2023-01-27T00:03:25.531Z,99.99
2023-01-27T00:04:25.753Z,99.99
2023-01-27T00:05:25.967Z,99.99
2023-01-27T00:06:26.180Z,99.99
2023-01-27T00:07:26.661Z,99.99
2023-01-27T00:08:26.892Z,99.99
2023-01-27T00:09:27.647Z,99.99
2023-01-27T00:10:28.574Z,99.99
2023-01-27T00:11:29.057Z,99.99
2023-01-27T00:12:28.961Z,99.99
2023-01-27T00:13:30.168Z,99.99
2023-01-27T00:14:31.072Z,99.99
2023-01-27T00:15:32.053Z,99.99
2023-01-27T00:16:32.119Z,99.99
2023-01-27T00:17:33.340Z,99.99
2023-01-27T00:18:33.284Z,99.99
2023-01-27T00:19:33.492Z,99.99
2023-01-27T00:20:34.711Z,99.99
2023-01-27T00:21:34.653Z,99.99
2023-01-27T00:22:35.854Z,99.99
2023-01-27T00:23:36.066Z,99.99
2023-01-27T00:24:36.366Z,99.99
2023-01-27T00:25:36.288Z,99.99
2023-01-27T00:26:37.224Z,99.99
2023-01-27T00:27:37.714Z,99.99
2023-01-27T00:28:38.199Z,99.99
2023-01-27T00:29:38.255Z,99.99
2023-01-27T00:30:38.660Z,99.99
2023-01-27T00:31:39.253Z,99.99
2023-01-27T00:32:39.356Z,99.99
2023-01-27T00:33:39.916Z,99.99
2023-01-27T00:34:40.859Z,99.99
2023-01-27T00:35:41.202Z,99.99
2023-01-27T00:36:41.600Z,99.99
2023-01-27T00:37:42.535Z,99.99
2023-01-27T00:38:43.760Z,99.99
2023-01-27T00:39:44.073Z,99.99
2023-01-27T00:40:44.299Z,99.99
2023-01-27T00:41:44.500Z,99.99
2023-01-27T00:42:45.158Z,99.99
2023-01-27T00:43:46.107Z,99.99
2023-01-27T00:44:46.332Z,99.99
2023-01-27T00:45:46.530Z,99.99
2023-01-27T00:46:47.461Z,99.99
2023-01-27T00:47:47.588Z,99.99
2023-01-27T00:48:47.820Z,99.99
2023-01-27T00:49:48.950Z,99.99
2023-01-27T00:50:49.435Z,99.99
2023-01-27T00:51:50.081Z,99.99
2023-01-27T00:52:50.847Z,99.99
2023-01-27T00:53:51.782Z,99.99
2023-01-27T00:54:52.311Z,99.99
2023-01-27T00:55:53.227Z,99.99
2023-01-27T00:56:53.425Z,99.99
2023-01-27T00:57:54.360Z,99.99
2023-01-27T00:58:55.270Z,99.99
2023-01-27T00:59:56.116Z,99.99
2023-01-27T01:00:56.419Z,99.99
2023-01-27T01:01:56.707Z,99.99
2023-01-27T01:02:57.470Z,99.99
2023-01-27T01:03:58.420Z,99.99
2023-01-27T01:04:58.618Z,99.99
2023-01-27T01:05:59.288Z,99.99
2023-01-27T01:07:00.208Z,99.99
2023-01-27T01:08:00.695Z,99.99
2023-01-27T01:09:00.902Z,99.99
2023-01-27T01:10:01.118Z,99.99
2023-01-27T01:11:01.951Z,99.99
2023-01-27T01:12:02.018Z,99.99
2023-01-27T01:13:02.506Z,99.99
2023-01-27T01:14:02.478Z,99.99
2023-01-27T01:15:03.372Z,99.99
2023-01-27T01:16:04.101Z,99.99
2023-01-27T01:17:04.022Z,99.99
2023-01-27T01:18:04.555Z,99.99
2023-01-27T01:19:05.072Z,99.99
2023-01-27T01:20:05.456Z,99.99
2023-01-27T01:21:05.768Z,99.99
2023-01-27T01:22:05.700Z,99.99
2023-01-27T01:23:06.613Z,99.99
2023-01-27T01:24:07.931Z,99.99
2023-01-27T01:25:08.086Z,99.99
2023-01-27T01:26:08.012Z,99.99
2023-01-27T01:27:09.311Z,99.99
2023-01-27T01:28:09.539Z,99.99
2023-01-27T01:29:10.152Z,99.99
2023-01-27T01:30:10.780Z,99.99
2023-01-27T01:31:12.183Z,99.99
2023-01-27T01:32:12.310Z,99.99
2023-01-27T01:33:13.548Z,99.99
2023-01-27T01:34:14.095Z,99.99
2023-01-27T01:35:14.006Z,99.99
2023-01-27T01:36:15.071Z,99.99
2023-01-27T01:37:16.025Z,99.99
2023-01-27T01:38:16.956Z,99.99
2023-01-27T01:39:17.888Z,99.99
2023-01-27T01:40:19.251Z,99.99
2023-01-27T01:41:18.884Z,99.99
2023-01-27T01:42:19.877Z,99.99
2023-01-27T01:43:20.806Z,99.99
2023-01-27T01:44:21.726Z,99.99
2023-01-27T01:45:22.657Z,99.99
2023-01-27T01:46:23.068Z,99.99
2023-01-27T01:47:23.196Z,99.99
2023-01-27T01:48:24.148Z,99.99
2023-01-27T01:49:25.184Z,99.99
2023-01-27T01:50:25.910Z,99.99
2023-01-27T01:51:26.884Z,99.99
2023-01-27T01:52:27.376Z,99.99
2023-01-27T01:53:27.563Z,99.99
2023-01-27T01:54:28.492Z,99.99
2023-01-27T01:55:29.025Z,99.99
2023-01-27T01:56:29.966Z,99.99
2023-01-27T01:57:30.634Z,99.99
2023-01-27T01:58:31.846Z,99.99
2023-01-27T01:59:32.561Z,99.99
2023-01-27T02:00:32.769Z,99.99
2023-01-27T02:01:33.435Z,99.99
2023-01-27T02:02:34.173Z,99.99
2023-01-27T02:03:34.256Z,99.99
2023-01-27T02:04:35.509Z,99.99
2023-01-27T02:05:36.126Z,99.99
2023-01-27T02:06:36.778Z,99.99
2023-01-27T02:07:37.282Z,99.99
2023-01-27T02:08:37.216Z,99.99
2023-01-27T02:09:38.156Z,99.99
2023-01-27T02:10:38.587Z,99.99
2023-01-27T02:11:38.832Z,99.99
2023-01-27T02:12:40.098Z,99.99
2023-01-27T02:13:40.005Z,99.99
2023-01-27T02:14:40.235Z,99.99
2023-01-27T02:15:40.899Z,99.99
2023-01-27T02:16:41.653Z,99.99
2023-01-27T02:17:42.168Z,99.99
2023-01-27T02:18:42.828Z,99.99
2023-01-27T02:19:43.347Z,99.99
2023-01-27T02:20:43.655Z,99.99
2023-01-27T02:21:43.636Z,99.99
2023-01-27T02:22:44.012Z,99.99
2023-01-27T02:23:45.216Z,99.99
2023-01-27T02:24:45.879Z,99.99
2023-01-27T02:25:46.162Z,99.99
2023-01-27T02:26:47.434Z,99.99
2023-01-27T02:27:47.649Z,99.99
2023-01-27T02:28:47.562Z,99.99
2023-01-27T02:29:48.504Z,99.99
2023-01-27T02:30:49.444Z,99.99
2023-01-27T02:31:50.402Z,99.99
2023-01-27T02:32:50.600Z,99.99
2023-01-27T02:33:51.249Z,99.99
2023-01-27T02:34:51.778Z,99.99
2023-01-27T02:35:52.523Z,99.99
2023-01-27T02:36:52.821Z,99.99
2023-01-27T02:37:53.757Z,99.99
2023-01-27T02:38:53.968Z,99.99
2023-01-27T02:39:55.225Z,99.99
2023-01-27T02:40:55.004Z,99.99
2023-01-27T02:41:55.218Z,99.99
2023-01-27T02:42:56.136Z,99.99
2023-01-27T02:43:56.798Z,99.99
2023-01-27T02:44:58.099Z,99.99
2023-01-27T02:45:58.388Z,99.99
2023-01-27T02:46:58.445Z,99.99
2023-01-27T02:47:58.820Z,99.99
2023-01-27T02:48:59.106Z,99.99
2023-01-27T02:49:59.637Z,99.99
2023-01-27T02:50:59.805Z,99.99
2023-01-27T02:52:01.021Z,99.99
2023-01-27T02:53:01.222Z,99.99
2023-01-27T02:54:02.156Z,99.99
2023-01-27T02:55:02.384Z,99.99
2023-01-27T02:56:02.494Z,99.99
2023-01-27T02:57:02.822Z,99.99
2023-01-27T02:58:03.218Z,99.99
2023-01-27T02:59:04.448Z,99.99
2023-01-27T03:00:05.388Z,99.99
2023-01-27T03:01:06.207Z,99.99
2023-01-27T03:02:07.102Z,99.99
2023-01-27T03:03:07.519Z,99.99
2023-01-27T03:04:08.490Z,99.99
2023-01-27T03:05:08.765Z,99.99
2023-01-27T03:06:08.669Z,99.99
2023-01-27T03:07:09.022Z,99.99
2023-01-27T03:08:09.236Z,99.99
2023-01-27T03:09:09.899Z,99.99
2023-01-27T03:10:11.142Z,99.99
2023-01-27T03:11:11.492Z,99.99
2023-01-27T03:12:12.719Z,99.99
2023-01-27T03:13:13.728Z,99.99
2023-01-27T03:14:14.275Z,99.99
2023-01-27T03:15:15.121Z,99.99
2023-01-27T03:16:18.904Z,99.99
2023-01-27T03:17:16.564Z,99.99
2023-01-27T03:18:17.073Z,99.99
2023-01-27T03:19:17.369Z,99.99
2023-01-27T03:20:17.420Z,99.99
2023-01-27T03:21:18.717Z,99.99
2023-01-27T03:22:19.056Z,99.99
2023-01-27T03:23:19.281Z,99.99
2023-01-27T03:24:19.279Z,99.99
2023-01-27T03:25:21.193Z,99.99
2023-01-27T03:26:21.429Z,99.99
2023-01-27T03:27:21.626Z,99.99
2023-01-27T03:28:22.291Z,99.99
2023-01-27T03:29:23.348Z,99.99
2023-01-27T03:30:24.283Z,99.99
2023-01-27T03:31:25.768Z,99.99
2023-01-27T03:32:25.204Z,99.99
2023-01-27T03:33:26.105Z,99.99
2023-01-27T03:34:27.038Z,99.99
2023-01-27T03:35:27.681Z,99.99
2023-01-27T03:36:27.969Z,99.99
2023-01-27T03:37:28.191Z,99.99
2023-01-27T03:38:29.101Z,99.99
2023-01-27T03:39:29.328Z,99.99
2023-01-27T03:40:30.398Z,99.99
2023-01-27T03:41:30.715Z,99.99
2023-01-27T03:42:31.903Z,99.99
2023-01-27T03:43:32.150Z,99.99
2023-01-27T03:44:33.113Z,99.99
2023-01-27T03:45:33.738Z,99.99
2023-01-27T03:46:34.731Z,99.99
2023-01-27T03:47:35.212Z,99.99
2023-01-27T03:48:36.160Z,99.99
2023-01-27T03:49:36.210Z,99.99
2023-01-27T03:50:38.030Z,99.99
2023-01-27T03:51:37.548Z,99.99
2023-01-27T03:52:38.464Z,99.99
2023-01-27T03:53:38.976Z,99.99
2023-01-27T03:54:39.926Z,99.99
2023-01-27T03:55:40.447Z,99.99
2023-01-27T03:56:40.347Z,99.99
2023-01-27T03:57:41.109Z,99.99
2023-01-27T03:58:41.315Z,99.99
2023-01-27T03:59:42.425Z,99.99
2023-01-27T04:00:42.622Z,99.99
2023-01-27T04:01:44.011Z,99.99
2023-01-27T04:02:44.159Z,99.99
2023-01-27T04:03:44.753Z,99.99
2023-01-27T04:04:45.511Z,99.99
2023-01-27T04:05:45.837Z,99.99
2023-01-27T04:06:45.756Z,99.99
2023-01-27T04:07:46.715Z,99.99
2023-01-27T04:08:47.203Z,99.99
2023-01-27T04:09:47.114Z,99.99
2023-01-27T04:10:48.224Z,99.99
2023-01-27T04:11:48.463Z,99.99
2023-01-27T04:12:49.101Z,99.99
2023-01-27T04:13:49.722Z,99.99
2023-01-27T04:14:50.051Z,99.99
2023-01-27T04:15:50.683Z,99.99
2023-01-27T04:16:51.020Z,99.99
2023-01-27T04:17:51.651Z,99.99
2023-01-27T04:18:54.396Z,99.99
2023-01-27T04:19:52.637Z,99.99
2023-01-27T04:20:53.135Z,99.99
2023-01-27T04:21:53.875Z,99.99
2023-01-27T04:22:54.086Z,99.99
2023-01-27T04:23:54.606Z,99.99
2023-01-27T04:24:55.241Z,99.99
2023-01-27T04:25:55.499Z,99.99
2023-01-27T04:26:56.003Z,99.99
2023-01-27T04:27:56.267Z,99.99
2023-01-27T04:28:56.902Z,99.99
2023-01-27T04:29:57.131Z,99.99
2023-01-27T04:30:57.913Z,99.99
2023-01-27T04:31:58.928Z,99.99
2023-01-27T04:33:00.229Z,99.99
2023-01-27T04:34:00.918Z,99.99
2023-01-27T04:35:01.209Z,99.99
2023-01-27T04:36:02.230Z,99.99
2023-01-27T04:37:03.292Z,99.99
2023-01-27T04:38:03.496Z,99.99
2023-01-27T04:39:04.405Z,99.99
2023-01-27T04:40:04.973Z,99.99
2023-01-27T04:41:05.191Z,99.99
2023-01-27T04:42:05.527Z,99.99
2023-01-27T04:43:05.837Z,99.99
2023-01-27T04:44:06.325Z,99.99
2023-01-27T04:45:06.819Z,99.99
2023-01-27T04:46:07.575Z,99.99
2023-01-27T04:47:07.626Z,99.99
2023-01-27T04:48:07.866Z,99.99
2023-01-27T04:49:08.530Z,99.99
2023-01-27T04:50:09.055Z,99.99
2023-01-27T04:51:09.598Z,99.99
2023-01-27T04:52:10.311Z,99.99
2023-01-27T04:53:10.724Z,99.99
2023-01-27T04:54:11.948Z,99.99
2023-01-27T04:55:12.188Z,99.99
2023-01-27T04:56:13.254Z,99.99
2023-01-27T04:57:13.505Z,99.99
2023-01-27T04:58:14.419Z,99.99
2023-01-27T04:59:14.837Z,99.99
2023-01-27T05:00:16.623Z,99.99
2023-01-27T05:01:16.611Z,99.99
2023-01-27T05:02:17.526Z,99.99
2023-01-27T05:03:17.970Z,99.99
2023-01-27T05:04:17.937Z,99.99
2023-01-27T05:05:19.621Z,99.99
2023-01-27T05:06:20.181Z,99.99
2023-01-27T05:07:21.160Z,99.99
2023-01-27T05:08:21.481Z,99.99
2023-01-27T05:09:21.696Z,99.99
2023-01-27T05:10:22.368Z,99.99
2023-01-27T05:11:23.299Z,99.99
2023-01-27T05:12:24.001Z,99.99
2023-01-27T05:13:24.496Z,99.99
2023-01-27T05:14:24.695Z,99.99
2023-01-27T05:15:25.621Z,99.99
2023-01-27T05:16:25.876Z,99.99
2023-01-27T05:17:26.759Z,99.99
2023-01-27T05:18:27.323Z,99.99
2023-01-27T05:19:27.400Z,99.99
2023-01-27T05:20:28.297Z,99.99
2023-01-27T05:21:28.944Z,99.99
2023-01-27T05:22:29.143Z,99.99
2023-01-27T05:23:29.933Z,99.99
2023-01-27T05:24:30.738Z,99.99
2023-01-27T05:25:31.661Z,99.99
2023-01-27T05:26:31.969Z,99.99
2023-01-27T05:27:32.215Z,99.99
2023-01-27T05:28:33.847Z,99.99
2023-01-27T05:29:32.788Z,99.99
2023-01-27T05:30:33.064Z,99.99
2023-01-27T05:31:34.354Z,99.99
2023-01-27T05:32:34.974Z,99.99
2023-01-27T05:33:35.624Z,99.99
2023-01-27T05:34:35.887Z,99.99
2023-01-27T05:35:36.825Z,99.99
2023-01-27T05:36:37.407Z,99.99
2023-01-27T05:37:37.909Z,99.99
2023-01-27T05:38:37.834Z,99.99
2023-01-27T05:39:38.173Z,99.99
2023-01-27T05:40:38.798Z,99.99
2023-01-27T05:41:39.761Z,99.99
2023-01-27T05:42:40.805Z,99.99
2023-01-27T05:43:41.210Z,99.99
2023-01-27T05:44:40.915Z,99.99
2023-01-27T05:45:41.553Z,99.99
2023-01-27T05:46:41.716Z,99.99
2023-01-27T05:47:42.181Z,99.99
2023-01-27T05:48:42.930Z,99.99
2023-01-27T05:49:43.893Z,99.99
2023-01-27T05:50:44.539Z,99.99
2023-01-27T05:51:45.129Z,99.99
2023-01-27T05:52:46.123Z,99.99
2023-01-27T05:53:47.357Z,99.99
2023-01-27T05:54:48.296Z,99.99
2023-01-27T05:55:48.923Z,99.99
2023-01-27T05:56:49.489Z,99.99
2023-01-27T05:57:49.695Z,99.99
2023-01-27T05:58:50.627Z,99.99
2023-01-27T05:59:51.169Z,99.99
2023-01-27T06:00:51.651Z,99.99
2023-01-27T06:01:52.363Z,99.99
2023-01-27T06:02:53.675Z,99.99
2023-01-27T06:03:53.906Z,99.99
2023-01-27T06:04:54.933Z,99.99
2023-01-27T06:05:55.868Z,99.99
2023-01-27T06:06:56.085Z,99.99
2023-01-27T06:07:57.713Z,99.99
2023-01-27T06:08:57.667Z,99.99
2023-01-27T06:09:58.583Z,99.99
2023-01-27T06:10:59.221Z,99.99
2023-01-27T06:12:00.457Z,99.99
2023-01-27T06:13:00.456Z,99.99
2023-01-27T06:14:01.427Z,99.99
2023-01-27T06:15:01.770Z,99.99
2023-01-27T06:16:02.431Z,99.99
2023-01-27T06:17:02.782Z,99.99
2023-01-27T06:18:03.348Z,99.99
2023-01-27T06:19:03.547Z,99.99
2023-01-27T06:20:04.469Z,99.99
2023-01-27T06:21:05.112Z,99.99
2023-01-27T06:22:05.932Z,99.99
2023-01-27T06:23:07.021Z,99.99
2023-01-27T06:24:07.987Z,99.99
2023-01-27T06:25:08.319Z,99.99
2023-01-27T06:26:08.687Z,99.99
2023-01-27T06:27:08.996Z,99.99
2023-01-27T06:28:12.527Z,99.99
2023-01-27T06:29:10.131Z,99.99
2023-01-27T06:30:10.787Z,99.99
2023-01-27T06:31:11.888Z,99.99
2023-01-27T06:32:12.143Z,99.99
2023-01-27T06:33:14.776Z,99.99
2023-01-27T06:34:13.529Z,99.99
2023-01-27T06:35:14.038Z,99.99
2023-01-27T06:36:14.658Z,99.99
2023-01-27T06:37:15.294Z,99.99
2023-01-27T06:38:17.676Z,99.99
2023-01-27T06:39:16.311Z,99.99
2023-01-27T06:40:17.204Z,99.99
2023-01-27T06:41:17.404Z,99.99
2023-01-27T06:42:18.399Z,99.99
2023-01-27T06:43:18.774Z,99.99
2023-01-27T06:44:19.194Z,99.99
2023-01-27T06:45:19.418Z,99.99
2023-01-27T06:46:20.468Z,99.99
2023-01-27T06:47:20.858Z,99.99
2023-01-27T06:48:21.485Z,99.99
2023-01-27T06:49:22.545Z,99.99
2023-01-27T06:50:23.128Z,99.99
2023-01-27T06:51:23.687Z,99.99
2023-01-27T06:52:23.936Z,99.99
2023-01-27T06:53:24.700Z,99.99
2023-01-27T06:54:24.822Z,99.99
2023-01-27T06:55:25.444Z,99.99
2023-01-27T06:56:25.372Z,99.99
2023-01-27T06:57:25.886Z,99.99
2023-01-27T06:58:26.416Z,99.99
2023-01-27T06:59:26.361Z,99.99
2023-01-27T07:00:27.332Z,99.99
2023-01-27T07:01:28.697Z,99.99
2023-01-27T07:02:29.163Z,99.99
2023-01-27T07:03:29.558Z,99.99
2023-01-27T07:04:30.652Z,99.99
2023-01-27T07:05:30.488Z,99.99
2023-01-27T07:06:30.782Z,99.99
2023-01-27T07:07:31.310Z,99.99
2023-01-27T07:08:31.801Z,99.99
2023-01-27T07:09:40.017Z,99.99
2023-01-27T07:10:32.130Z,99.99
2023-01-27T07:11:33.331Z,99.99
2023-01-27T07:12:33.882Z,99.99
2023-01-27T07:13:34.025Z,99.99
2023-01-27T07:14:33.937Z,99.99
2023-01-27T07:15:34.358Z,99.99
2023-01-27T07:16:34.919Z,99.99
2023-01-27T07:17:35.329Z,99.99
2023-01-27T07:18:35.728Z,99.99
2023-01-27T07:19:36.346Z,99.99
2023-01-27T07:20:36.991Z,99.99
2023-01-27T07:21:37.627Z,99.99
2023-01-27T07:22:37.879Z,99.99
2023-01-27T07:23:37.895Z,99.99
2023-01-27T07:24:38.485Z,99.99
2023-01-27T07:25:38.405Z,99.99
2023-01-27T07:26:39.608Z,99.99
2023-01-27T07:27:40.575Z,99.99
2023-01-27T07:28:40.814Z,99.99
2023-01-27T07:29:41.770Z,99.99
2023-01-27T07:30:42.439Z,99.99
2023-01-27T07:31:42.576Z,99.99
2023-01-27T07:32:43.720Z,99.99
2023-01-27T07:33:44.197Z,99.99
2023-01-27T07:34:44.442Z,99.99
2023-01-27T07:35:45.676Z,99.99
2023-01-27T07:36:46.328Z,99.99
2023-01-27T07:37:46.905Z,99.99
2023-01-27T07:38:47.190Z,99.99
2023-01-27T07:39:47.526Z,99.99
2023-01-27T07:40:47.432Z,99.99
2023-01-27T07:41:48.376Z,99.99
2023-01-27T07:42:49.361Z,99.99
2023-01-27T07:43:51.577Z,99.99
2023-01-27T07:44:50.815Z,99.99
2023-01-27T07:45:51.845Z,99.99
2023-01-27T07:46:52.098Z,99.99
2023-01-27T07:47:53.045Z,99.99
2023-01-27T07:48:53.261Z,99.99
2023-01-27T07:49:53.466Z,99.99
2023-01-27T07:50:53.713Z,99.99
2023-01-27T07:51:54.945Z,99.99
2023-01-27T07:52:55.496Z,99.99
2023-01-27T07:53:56.130Z,99.99
2023-01-27T07:54:56.965Z,99.99
2023-01-27T07:55:57.500Z,99.99
2023-01-27T07:56:58.032Z,99.99
2023-01-27T07:57:58.280Z,99.99
2023-01-27T07:58:58.710Z,99.99
2023-01-27T07:59:59.717Z,99.99
2023-01-27T08:01:00.348Z,99.99
2023-01-27T08:02:00.134Z,99.99
2023-01-27T08:03:01.181Z,99.99
2023-01-27T08:04:01.434Z,99.99
2023-01-27T08:05:01.379Z,99.99
2023-01-27T08:06:02.589Z,99.99
2023-01-27T08:07:02.854Z,99.99
2023-01-27T08:08:04.589Z,99.99
2023-01-27T08:09:03.852Z,99.99
2023-01-27T08:10:05.080Z,99.99
2023-01-27T08:11:05.701Z,99.99
2023-01-27T08:12:05.918Z,99.99
2023-01-27T08:13:07.002Z,99.99
2023-01-27T08:14:07.227Z,99.99
2023-01-27T08:15:07.162Z,99.99
2023-01-27T08:16:08.536Z,99.99
2023-01-27T08:17:08.765Z,99.99
2023-01-27T08:18:09.291Z,99.99
2023-01-27T08:19:09.483Z,99.99
2023-01-27T08:20:09.831Z,99.99
2023-01-27T08:21:11.109Z,99.99
2023-01-27T08:22:11.332Z,99.99
2023-01-27T08:23:11.867Z,99.99
2023-01-27T08:24:11.786Z,99.99
2023-01-27T08:25:12.370Z,99.99
2023-01-27T08:26:13.291Z,99.99
2023-01-27T08:27:13.611Z,99.99
2023-01-27T08:28:13.832Z,99.99
2023-01-27T08:29:14.769Z,99.99
2023-01-27T08:30:15.607Z,99.99
2023-01-27T08:31:16.270Z,99.99
2023-01-27T08:32:19.011Z,99.99
2023-01-27T08:33:16.935Z,99.99
2023-01-27T08:34:17.688Z,99.99
2023-01-27T08:35:18.189Z,99.99
2023-01-27T08:36:18.421Z,99.99
2023-01-27T08:37:19.371Z,99.99
2023-01-27T08:38:19.632Z,99.99
2023-01-27T08:39:20.019Z,99.99
2023-01-27T08:40:21.402Z,99.99
2023-01-27T08:41:22.030Z,99.99
2023-01-27T08:42:23.251Z,99.99
2023-01-27T08:43:24.212Z,99.99
2023-01-27T08:44:24.431Z,99.99
2023-01-27T08:45:24.659Z,99.99
2023-01-27T08:46:25.258Z,99.99
2023-01-27T08:47:25.899Z,99.99
2023-01-27T08:48:26.357Z,99.99
2023-01-27T08:49:27.042Z,99.99
2023-01-27T08:50:27.272Z,99.99
2023-01-27T08:51:27.495Z,99.99
2023-01-27T08:52:27.802Z,99.99
2023-01-27T08:53:28.338Z,99.99
2023-01-27T08:54:29.338Z,99.99
2023-01-27T08:55:30.156Z,99.99
2023-01-27T08:56:30.388Z,99.99
2023-01-27T08:57:30.910Z,99.99
2023-01-27T08:58:31.605Z,99.99
2023-01-27T08:59:31.878Z,99.99
2023-01-27T09:00:32.257Z,99.99
2023-01-27T09:01:32.610Z,99.99
2023-01-27T09:02:32.807Z,99.99
2023-01-27T09:03:33.550Z,99.99
2023-01-27T09:04:33.931Z,99.99
2023-01-27T09:05:34.476Z,99.99
2023-01-27T09:06:35.149Z,99.99
2023-01-27T09:07:36.441Z,99.99
2023-01-27T09:08:37.049Z,99.99
2023-01-27T09:09:38.000Z,99.99
2023-01-27T09:10:38.230Z,99.99
2023-01-27T09:11:38.462Z,99.99
2023-01-27T09:12:38.947Z,99.99
2023-01-27T09:13:40.034Z,99.99
2023-01-27T09:14:40.366Z,99.99
2023-01-27T09:15:40.308Z,99.99
2023-01-27T09:16:40.990Z,99.99
2023-01-27T09:17:40.911Z,99.99
2023-01-27T09:18:42.148Z,99.99
2023-01-27T09:19:42.352Z,99.99
2023-01-27T09:20:42.876Z,99.99
2023-01-27T09:21:43.207Z,99.99
2023-01-27T09:22:43.175Z,99.99
2023-01-27T09:23:44.506Z,99.99
2023-01-27T09:24:45.125Z,99.99
2023-01-27T09:25:45.377Z,99.99
2023-01-27T09:26:46.318Z,99.99
2023-01-27T09:27:46.912Z,99.99
2023-01-27T09:28:47.445Z,99.99
2023-01-27T09:29:47.676Z,99.99
2023-01-27T09:30:51.486Z,99.99
2023-01-27T09:31:49.113Z,99.99
2023-01-27T09:32:49.275Z,99.99
2023-01-27T09:33:50.280Z,99.99
2023-01-27T09:34:50.589Z,99.99
2023-01-27T09:35:50.816Z,99.99
2023-01-27T09:36:51.314Z,99.99
2023-01-27T09:37:51.590Z,99.99
2023-01-27T09:38:51.822Z,99.99
2023-01-27T09:39:52.847Z,99.99
2023-01-27T09:40:53.771Z,99.99
2023-01-27T09:41:54.416Z,99.99
2023-01-27T09:42:54.644Z,99.99
2023-01-27T09:43:54.864Z,99.99
2023-01-27T09:44:55.932Z,99.99
2023-01-27T09:45:56.607Z,99.99
2023-01-27T09:46:59.595Z,99.99
2023-01-27T09:47:56.950Z,99.99
2023-01-27T09:48:57.581Z,99.99
2023-01-27T09:49:57.805Z,99.99
2023-01-27T09:50:58.360Z,99.99
2023-01-27T09:51:58.886Z,99.99
2023-01-27T09:52:59.469Z,99.99
2023-01-27T09:53:59.788Z,99.99
2023-01-27T09:55:00.637Z,99.99
2023-01-27T09:56:01.117Z,99.99
2023-01-27T09:57:01.263Z,99.99
2023-01-27T09:58:02.241Z,99.99
2023-01-27T09:59:03.254Z,99.99
2023-01-27T10:00:03.509Z,99.99
2023-01-27T10:01:04.016Z,99.99
2023-01-27T10:02:05.085Z,99.99
2023-01-27T10:03:05.604Z,99.99
2023-01-27T10:04:06.283Z,99.99
2023-01-27T10:05:07.511Z,99.99
2023-01-27T10:06:08.430Z,99.99
2023-01-27T10:07:08.694Z,99.99
2023-01-27T10:08:08.925Z,99.99
2023-01-27T10:09:09.486Z,99.99
2023-01-27T10:10:09.731Z,99.99
2023-01-27T10:11:10.138Z,99.99
2023-01-27T10:12:10.632Z,99.99
2023-01-27T10:13:10.841Z,99.99
2023-01-27T10:14:11.863Z,99.99
2023-01-27T10:15:12.452Z,99.99
2023-01-27T10:16:12.444Z,99.99
2023-01-27T10:17:13.583Z,99.99
2023-01-27T10:18:13.800Z,99.99
2023-01-27T10:19:14.025Z,99.99
2023-01-27T10:20:14.893Z,99.99
2023-01-27T10:21:15.347Z,99.99
2023-01-27T10:22:15.557Z,99.99
2023-01-27T10:23:16.814Z,99.99
2023-01-27T10:24:17.796Z,99.99
2023-01-27T10:25:18.539Z,99.99
2023-01-27T10:26:18.739Z,99.99
2023-01-27T10:27:19.379Z,99.99
2023-01-27T10:28:20.323Z,99.99
2023-01-27T10:29:21.591Z,99.99
2023-01-27T10:30:22.055Z,99.99
2023-01-27T10:31:22.819Z,99.99
2023-01-27T10:32:22.603Z,99.99
2023-01-27T10:33:23.859Z,99.99
2023-01-27T10:34:24.057Z,99.99
2023-01-27T10:35:25.108Z,99.99
2023-01-27T10:36:25.426Z,99.99
2023-01-27T10:37:25.675Z,99.99
2023-01-27T10:38:25.896Z,99.99
2023-01-27T10:39:26.512Z,99.52
2023-01-27T10:40:27.037Z,98.58
2023-01-27T10:41:27.256Z,98.77
2023-01-27T10:42:27.771Z,98.86
2023-01-27T10:43:28.004Z,99.05
2023-01-27T10:44:29.262Z,99.15
2023-01-27T10:45:30.001Z,99.52
2023-01-27T10:46:30.803Z,99.43
2023-01-27T10:47:30.769Z,99.99
2023-01-27T10:48:31.982Z,99.99
2023-01-27T10:49:32.237Z,99.99
2023-01-27T10:50:32.154Z,99.99
2023-01-27T10:51:33.494Z,99.99
2023-01-27T10:52:34.462Z,99.99
2023-01-27T10:53:35.122Z,99.99
2023-01-27T10:54:35.658Z,99.99
2023-01-27T10:55:36.035Z,99.99
2023-01-27T10:56:37.094Z,99.99
2023-01-27T10:57:37.652Z,99.99
2023-01-27T10:58:37.853Z,99.29
2023-01-27T10:59:38.104Z,99.1
2023-01-27T11:01:22.546Z,98.91
2023-01-27T11:01:41.758Z,98.82
2023-01-27T11:02:41.854Z,98.25
2023-01-27T11:03:42.570Z,99.01
2023-01-27T11:04:43.435Z,98.63
2023-01-27T11:05:44.467Z,98.53
2023-01-27T11:06:45.100Z,98.06
2023-01-27T11:07:45.770Z,97.3
2023-01-27T11:08:46.762Z,97.2
2023-01-27T11:09:47.097Z,97.11
2023-01-27T11:10:47.594Z,96.64
2023-01-27T11:11:47.808Z,96.54
2023-01-27T11:12:48.329Z,97.3
2023-01-27T11:13:48.294Z,97.68
2023-01-27T11:14:48.831Z,97.02
2023-01-27T11:15:49.654Z,97.3
2023-01-27T11:16:50.000Z,97.68
2023-01-27T11:17:51.007Z,97.02
2023-01-27T11:18:51.240Z,96.07
2023-01-27T11:19:51.733Z,95.4
2023-01-27T11:20:53.316Z,94.65
2023-01-27T11:22:08.002Z,95.21
2023-01-27T11:22:52.942Z,95.21
2023-01-27T11:23:53.212Z,95.88
2023-01-27T11:24:54.032Z,97.02
2023-01-27T11:25:55.085Z,97.3
2023-01-27T11:26:55.322Z,97.77
2023-01-27T11:27:56.270Z,97.87
2023-01-27T11:28:56.584Z,97.87
2023-01-27T11:29:57.651Z,97.96
2023-01-27T11:30:57.467Z,97.49
2023-01-27T11:31:58.356Z,97.2
2023-01-27T11:32:58.868Z,96.83
2023-01-27T11:33:59.808Z,97.49
2023-01-27T11:35:00.344Z,96.92
2023-01-27T11:36:00.719Z,96.45
2023-01-27T11:37:01.638Z,95.78
2023-01-27T11:38:15.975Z,95.31
2023-01-27T11:39:02.400Z,95.97
2023-01-27T11:40:02.959Z,96.45
2023-01-27T11:41:03.584Z,96.07
2023-01-27T11:42:03.783Z,95.88
2023-01-27T11:43:04.030Z,96.07
2023-01-27T11:44:04.245Z,95.4
2023-01-27T11:45:04.527Z,95.21
2023-01-27T11:46:05.284Z,94.65
2023-01-27T11:47:05.816Z,95.03
2023-01-27T11:48:06.313Z,95.59
2023-01-27T11:49:07.283Z,96.35
2023-01-27T11:50:08.264Z,97.49
2023-01-27T11:51:09.395Z,98.06
2023-01-27T11:52:10.005Z,98.34
2023-01-27T11:53:09.946Z,98.72
2023-01-27T11:54:11.279Z,99.29
2023-01-27T11:55:11.817Z,99.66
2023-01-27T11:56:14.924Z,99.57
2023-01-27T11:57:12.970Z,99.1
2023-01-27T11:58:13.191Z,98.91
2023-01-27T11:59:14.498Z,99.99
2023-01-27T12:00:15.395Z,99.99
2023-01-27T12:01:16.070Z,99.99
2023-01-27T12:02:16.288Z,99.99
2023-01-27T12:03:16.518Z,99.99
2023-01-27T12:04:16.880Z,99.99
2023-01-27T12:05:17.597Z,99.99
2023-01-27T12:06:18.633Z,99.99
2023-01-27T12:07:18.964Z,99.99
2023-01-27T12:08:19.454Z,99.99
2023-01-27T12:09:19.692Z,99.99
2023-01-27T12:10:21.285Z,99.99
2023-01-27T12:11:21.248Z,99.99
2023-01-27T12:12:21.101Z,99.99
2023-01-27T12:13:21.588Z,99.99
2023-01-27T12:14:22.210Z,99.29
2023-01-27T12:15:23.443Z,99.01
2023-01-27T12:16:24.357Z,97.87
2023-01-27T12:17:24.396Z,97.3
2023-01-27T12:18:25.343Z,97.02
2023-01-27T12:19:25.776Z,97.58
2023-01-27T12:20:26.144Z,97.77
2023-01-27T12:21:26.784Z,98.44
2023-01-27T12:22:27.278Z,98.82
2023-01-27T12:23:27.223Z,98.44
2023-01-27T12:24:28.011Z,98.44
2023-01-27T12:25:28.802Z,98.91
2023-01-27T12:26:29.259Z,98.44
2023-01-27T12:27:30.189Z,98.06
2023-01-27T12:28:31.135Z,98.34
2023-01-27T12:29:32.050Z,98.44
2023-01-27T12:30:32.978Z,99.48
2023-01-27T12:31:34.221Z,99.99
2023-01-27T12:32:34.867Z,99.99
2023-01-27T12:33:35.518Z,99.99
2023-01-27T12:34:36.468Z,99.99
2023-01-27T12:35:36.750Z,99.99
2023-01-27T12:36:37.780Z,99.99
2023-01-27T12:37:38.027Z,99.99
2023-01-27T12:38:38.941Z,99.99
2023-01-27T12:39:39.455Z,99.99
2023-01-27T12:40:39.763Z,99.95
2023-01-27T12:41:40.268Z,99.99
2023-01-27T12:42:41.231Z,99.99
2023-01-27T12:43:41.745Z,99.99
2023-01-27T12:44:41.951Z,99.99
2023-01-27T12:45:42.205Z,99.99
2023-01-27T12:46:42.996Z,99.99
2023-01-27T12:47:43.067Z,99.99
2023-01-27T12:48:43.985Z,99.99
2023-01-27T12:49:44.558Z,99.99
2023-01-27T12:50:45.262Z,99.99
2023-01-27T12:51:46.263Z,99.99
2023-01-27T12:52:46.884Z,99.99
2023-01-27T12:53:47.155Z,99.99
2023-01-27T12:54:47.407Z,99.99
2023-01-27T12:55:48.007Z,99.99
2023-01-27T12:56:48.335Z,99.99
2023-01-27T12:57:49.412Z,99.99
2023-01-27T12:58:52.237Z,99.99
2023-01-27T12:59:50.524Z,99.99
2023-01-27T13:00:51.624Z,99.99